Flight Track Log - Related Links

Times and Time Zones

All times are in EDT time to prevent confusion due to time zone crossing. See the SKW6524 flight status page for this flight to view local times or setup timezone preferences in your user account.

Time Position Orientation Groundspeed Altitude Reporting Facility
EDT Latitude Longitude Course Direction KTS MPH feet Rate Location/Type
Sat 09:27:26 PM 39.9667 -104.6667 348° North 226 260 7,600  Level Denver TRACON
Sat 09:28:08 PM 40.0089 -104.6664 360° North 256 295 8,500 1,748 Climbing Denver Center
Sat 09:29:00 PM 40.2754 -104.8043 347° North  Level FlightAware Approximate
Sat 09:29:09 PM 40.0861 -104.6661 360° North 275 316 10,600  Level Denver Center
Sat 09:30:00 PM 40.3820 -104.8384 346° North  Level FlightAware Approximate
Sat 09:30:10 PM 40.1703 -104.6889 348° North 286 329 12,900  Level Denver Center
Sat 09:31:00 PM 40.4884 -104.8739 346° North  Level FlightAware Approximate
Sat 09:31:12 PM 40.2492 -104.7089 349° North 288 331 14,900  Level Denver Center
Sat 09:32:00 PM 40.5954 -104.9058 348° North  Level FlightAware Approximate
Sat 09:32:13 PM 40.3386 -104.7314 349° North 336 387 15,800  Level Denver Center
Sat 09:33:15 PM 40.4389 -104.7592 348° North 343 395 17,400 1,415 Climbing Denver Center
Sat 09:34:16 PM 40.5353 -104.7697 355° North 353 406 18,700 1,171 Climbing Denver Center
Sat 09:35:18 PM 40.6342 -104.7614 North 356 410 19,800 1,171 Climbing Denver Center
Sat 09:36:19 PM 40.7422 -104.7542 North 361 415 21,100 1,317 Climbing Denver Center
Sat 09:37:21 PM 40.8397 -104.7483 North 360 414 22,500 1,220 Climbing Denver Center
Sat 09:38:22 PM 40.9408 -104.7397 North 360 414 23,600 976 Climbing Denver Center
Sat 09:39:24 PM 41.0472 -104.7261 North 366 421 24,500 829 Climbing Denver Center
Sat 09:40:25 PM 41.1450 -104.7175 North 367 422 25,300 836 Climbing Denver Center
Sat 09:41:26 PM 41.2622 -104.7106 North 375 432 26,200 732 Climbing Denver Center
Sat 09:42:28 PM 41.3625 -104.7033 North 377 434 26,800 634 Climbing Denver Center
Sat 09:43:29 PM 41.4644 -104.6961 North 382 440 27,500 683 Climbing Denver Center
Sat 09:44:31 PM 41.5833 -104.6858 North 383 441 28,200 537 Climbing Denver Center
Sat 09:45:32 PM 41.6869 -104.6775 North 387 445 28,600 934 Climbing Denver Center
Sat 09:46:33 PM 41.8042 -104.6678 North 379 436 30,100 1,024 Climbing Denver Center
Sat 09:47:35 PM 41.9025 -104.6611 North 370 426 30,700 537 Climbing Denver Center
Sat 09:48:36 PM 42.0014 -104.6522 North 371 427 31,200 639 Climbing Denver Center
Sat 09:49:37 PM 42.1161 -104.6431 North 368 423 32,000 393 Climbing Denver Center
Sat 09:50:38 PM 42.2153 -104.6350 North 372 428 32,000  Level Denver Center
Sat 09:51:40 PM 42.3347 -104.6250 North 383 441 32,000  Level Denver Center
Sat 09:52:41 PM 42.4367 -104.6164 North 385 443 32,000  Level Denver Center
Sat 09:53:42 PM 42.5467 -104.6069 North 388 447 32,000  Level Denver Center
Sat 09:54:43 PM 42.6550 -104.5981 North 396 456 32,000  Level Denver Center
Sat 09:55:45 PM 42.7781 -104.5883 North 396 456 32,000  Level Denver Center
Sat 09:56:46 PM 42.8842 -104.5800 North 398 458 32,000  Level Denver Center
Sat 09:57:47 PM 42.9908 -104.5708 North 399 459 32,000  Level Denver Center
Sat 09:58:48 PM 43.1150 -104.5597 North 400 460 32,000  Level Denver Center
Sat 09:59:50 PM 43.2222 -104.5497 North 402 463 32,000  Level Denver Center
Sat 10:00:51 PM 43.3467 -104.5389 North 401 461 32,000  Level Denver Center
Sat 10:01:52 PM 43.4544 -104.5300 North 404 465 32,000  Level Denver Center
Sat 10:02:53 PM 43.5614 -104.5206 North 403 464 32,000  Level Denver Center
Sat 10:04:07 PM 43.7047 -104.5089 North 403 464 32,000  Level Denver Center
Sat 10:05:08 PM 43.8122 -104.4983 North 404 465 32,000  Level Denver Center
Sat 10:06:09 PM 43.9372 -104.4897 North 402 463 32,000  Level Denver Center
Sat 10:07:10 PM 44.0444 -104.4794 North 403 464 32,000  Level Denver Center
Sat 10:08:23 PM 44.1519 -104.4708 North 404 465 32,000  Level Denver Center
Sat 10:09:24 PM 44.2950 -104.4583 North 404 465 32,000  Level Denver Center
Sat 10:10:25 PM 44.4031 -104.4492 North 406 467 32,000  Level Denver Center
Sat 10:11:27 PM 44.5281 -104.4378 North 404 465 32,000  Level Denver Center
Sat 10:12:28 PM 44.6361 -104.4286 North 405 466 32,000  Level Denver Center
Sat 10:13:29 PM 44.7631 -104.4183 North 408 470 32,000  Level Denver Center
Sat 10:14:30 PM 44.8708 -104.4081 North 404 465 32,000  Level Denver Center
Sat 10:15:31 PM 44.9789 -104.3975 North 406 467 32,000  Level Denver Center
Sat 10:16:32 PM 45.0986 -104.3867 North 407 468 32,000  Level Denver Center
Sat 10:17:23 PM 45.1961 -104.3778 North 407 468 32,000  Level Salt Lake Center
Sat 10:18:24 PM 45.3125 -104.3664 North 407 468 32,000  Level Salt Lake Center
Sat 10:19:25 PM 45.4261 -104.3567 North 409 471 32,000  Level Salt Lake Center
Sat 10:20:26 PM 45.5411 -104.3458 North 414 476 32,000  Level Salt Lake Center
Sat 10:21:27 PM 45.6558 -104.3375 North 414 476 32,000  Level Salt Lake Center
Sat 10:22:28 PM 45.7706 -104.3247 North 413 475 32,000  Level Salt Lake Center
Sat 10:23:30 PM 45.8844 -104.3147 North 411 473 32,000  Level Salt Lake Center
Sat 10:24:31 PM 45.9994 -104.3028 North 412 474 32,000  Level Salt Lake Center
Sat 10:25:32 PM 46.1150 -104.2919 North 415 478 32,000  Level Salt Lake Center
Sat 10:26:33 PM 46.2311 -104.2819 North 417 480 32,000  Level Salt Lake Center
Sat 10:27:34 PM 46.3681 -104.2683 North 413 475 32,000  Level Salt Lake Center
Sat 10:28:35 PM 46.4847 -104.2581 North 417 480 32,000  Level Salt Lake Center
Sat 10:29:36 PM 46.5994 -104.2464 North 415 478 32,000  Level Salt Lake Center
Sat 10:30:38 PM 46.7147 -104.2350 North 416 479 32,000  Level Salt Lake Center
Sat 10:31:39 PM 46.8308 -104.2239 North 417 480 32,000  Level Salt Lake Center
Sat 10:32:40 PM 46.9469 -104.2139 North 417 480 32,000  Level Salt Lake Center
Sat 10:33:41 PM 47.0631 -104.2039 North 418 481 32,000  Level Salt Lake Center
Sat 10:34:42 PM 47.1792 -104.1936 North 418 481 32,000  Level Salt Lake Center
Sat 10:35:43 PM 47.2933 -104.1808 North 416 479 32,000  Level Salt Lake Center
Sat 10:36:45 PM 47.4075 -104.1700 North 413 475 32,000  Level Salt Lake Center
Sat 10:37:46 PM 47.5219 -104.1592 North 411 473 32,000  Level Salt Lake Center
Sat 10:38:47 PM 47.6375 -104.1489 North 411 473 32,000  Level Salt Lake Center
Sat 10:39:48 PM 47.7517 -104.1378 North 409 471 32,000  Level Salt Lake Center
Sat 10:40:49 PM 47.8664 -104.1267 North 409 471 32,000  Level Salt Lake Center
Sat 10:41:50 PM 48.0031 -104.1128 North 408 470 32,000  Level Salt Lake Center
Sat 10:42:51 PM 48.1158 -104.1000 North 407 468 32,000  Level Salt Lake Center
Sat 10:43:53 PM 48.2283 -104.0908 North 406 467 32,000  Level Salt Lake Center
Sat 10:44:54 PM 48.3419 -104.0781 North 407 468 32,000  Level Salt Lake Center
Sat 10:45:55 PM 48.4550 -104.0669 North 407 468 32,000  Level Salt Lake Center
Sat 10:46:56 PM 48.5692 -104.0561 North 409 471 32,000  Level Salt Lake Center
Sat 10:47:57 PM 48.6814 -104.0458 North 408 470 32,000  Level Salt Lake Center
Sat 10:48:58 PM 48.7944 -104.0350 North 407 468 32,000  Level Salt Lake Center
Sat 10:49:52 PM 48.8833 -104.0500 354° North 410 472 32,000  Level Winnipeg Center
Sat 10:50:52 PM 49.0000 -104.0167 11° North 410 472 32,000  Level Winnipeg Center
Sat 10:51:52 PM 49.1000 -104.0167 360° North 410 472 32,000  Level Winnipeg Center
Sat 10:52:52 PM 49.2333 -103.9833 North 410 472 32,000  Level Winnipeg Center
Sat 10:53:52 PM 49.3500 -104.0000 355° North 410 472 32,000 -400 Level Winnipeg Center
Sat 10:54:52 PM 49.4333 -104.0667 333° Northwest 380 437 31,200 -1,900 Descending Winnipeg Center
Sat 10:55:52 PM 49.5333 -104.1333 337° Northwest 400 460 28,200 -2,900 Descending Winnipeg Center
Sat 10:56:52 PM 49.6500 -104.2000 340° North 430 495 25,400 -3,000 Descending Winnipeg Center
Sat 10:57:52 PM 49.7667 -104.2833 335° Northwest 430 495 22,200 -3,050 Descending Winnipeg Center
Sat 10:58:52 PM 49.8833 -104.3500 340° North 420 483 19,300 -3,150 Descending Winnipeg Center
Sat 10:59:52 PM 49.9667 -104.4167 333° Northwest 390 449 15,900 -3,150 Descending Winnipeg Center
Sat 11:00:52 PM 50.0500 -104.5000 327° Northwest 370 426 13,000 -2,450 Descending Winnipeg Center
Sat 11:01:52 PM 50.1333 -104.6000 322° Northwest 350 403 11,000 -1,600 Descending Winnipeg Center
Sat 11:02:52 PM 50.2000 -104.6333 342° North 290 334 9,800 -1,450 Descending Winnipeg Center
Sat 11:03:52 PM 50.2500 -104.7000 320° Northwest 270 311 8,100 -2,250 Descending Winnipeg Center
Sat 11:04:52 PM 50.3167 -104.7667 327° Northwest 250 288 5,300 -1,600 Descending Winnipeg Center
Sat 11:05:52 PM 50.3833 -104.8000 342° North 230 265 4,900 -650 Descending Winnipeg Center
Sat 11:06:52 PM 50.4167 -104.8500 316° Northwest 200 230 4,000 -900 Descending Winnipeg Center

Login

Don't have an account? Register now (free) for customized features, flight alerts, and more!